Time;durP1;ratioP1;P1;durP2;ratioP2;P2;SDS_P1;SDS_P2;PMS_P1;PMS_P2;Temp;Humidity;BMP_temperature;BMP_pressure;BME280_temperature;BME280_humidity;BME280_pressure;Samples;Min_cycle;Max_cycle;Signal;HPM_P1;HPM_P2
2021/06/11 00:02:10;;;;;;;6.00;4.50;;;;;;;;;;4995492;28;20199;-55
2021/06/11 00:04:35;;;;;;;5.20;4.70;;;;;;;;;;5005741;28;20195;-55
2021/06/11 00:07:00;;;;;;;10.30;5.03;;;;;;;;;;5007686;28;20306;-55
2021/06/11 00:09:30;;;;;;;6.80;5.00;;;;;;;;;;5009240;28;20192;-55
2021/06/11 00:11:58;;;;;;;6.47;5.37;;;;;;;;;;4990127;28;20188;-55
2021/06/11 00:14:23;;;;;;;6.53;5.47;;;;;;;;;;5004579;28;20595;-54
2021/06/11 00:16:51;;;;;;;5.77;5.10;;;;;;;;;;5006205;28;20222;-55
2021/06/11 00:19:18;;;;;;;9.90;5.87;;;;;;;;;;5001386;28;20241;-55
2021/06/11 00:21:46;;;;;;;6.93;5.57;;;;;;;;;;5003226;28;20287;-56
2021/06/11 00:24:11;;;;;;;7.50;5.50;;;;;;;;;;5010210;28;20184;-55
2021/06/11 00:26:39;;;;;;;8.70;5.13;;;;;;;;;;4990926;28;20610;-55
2021/06/11 00:29:04;;;;;;;6.10;5.50;;;;;;;;;;5003783;28;20194;-57
2021/06/11 00:31:32;;;;;;;7.17;5.20;;;;;;;;;;5005793;28;20183;-56
2021/06/11 00:34:02;;;;;;;5.30;4.80;;;;;;;;;;5001122;28;20768;-55
2021/06/11 00:36:32;;;;;;;5.80;5.07;;;;;;;;;;5000220;28;20745;-55
2021/06/11 00:38:59;;;;;;;8.73;5.57;;;;;;;;;;5010964;28;20215;-56
2021/06/11 00:41:25;;;;;;;8.50;4.87;;;;;;;;;;5034198;22;20238;-88
2021/06/11 00:43:50;;;;;;;7.63;6.37;;;;;;;;;;5003805;28;20651;-88
2021/06/11 00:46:18;;;;;;;6.63;6.03;;;;;;;;;;4985943;28;20180;-89
2021/06/11 00:48:43;;;;;;;6.30;5.63;;;;;;;;;;5005842;28;20298;-89
2021/06/11 00:51:08;;;;;;;6.77;5.80;;;;;;;;;;5005487;28;20683;-90
2021/06/11 00:53:34;;;;;;;6.40;5.30;;;;;;;;;;5007283;28;20195;-88
2021/06/11 00:55:59;;;;;;;7.73;6.93;;;;;;;;;;5005908;28;20187;-91
2021/06/11 00:58:24;;;;;;;11.57;6.73;;;;;;;;;;4998995;28;20205;-91
2021/06/11 01:00:50;;;;;;;9.13;6.53;;;;;;;;;;4992297;28;20241;-91
2021/06/11 01:03:17;;;;;;;7.97;6.53;;;;;;;;;;4987080;28;20294;-91
2021/06/11 01:05:43;;;;;;;6.23;4.47;;;;;;;;;;4990382;28;20199;-95
2021/06/11 01:08:11;;;;;;;4.77;4.37;;;;;;;;;;4991629;28;20282;-93
2021/06/11 01:10:37;;;;;;;6.60;4.77;;;;;;;;;;4999681;28;20238;-92
2021/06/11 01:13:02;;;;;;;6.77;5.13;;;;;;;;;;4990317;28;20203;-93
2021/06/11 01:15:30;;;;;;;6.17;4.90;;;;;;;;;;4988486;28;20249;-91
2021/06/11 01:17:55;;;;;;;7.77;6.10;;;;;;;;;;4989863;28;20405;-89
2021/06/11 01:20:22;;;;;;;9.00;5.63;;;;;;;;;;5009558;28;20230;-90
2021/06/11 01:23:12;;;;;;;6.03;5.43;;;;;;;;;;5006274;28;20202;-89
2021/06/11 01:25:48;;;;;;;7.17;4.80;;;;;;;;;;5011671;28;20187;-88
2021/06/11 01:28:14;;;;;;;6.87;5.00;;;;;;;;;;5028802;28;20416;-87
2021/06/11 01:30:40;;;;;;;6.67;5.37;;;;;;;;;;5028490;28;20206;-88
2021/06/11 01:33:11;;;;;;;11.20;5.63;;;;;;;;;;5022672;28;20230;-89
2021/06/11 01:35:54;;;;;;;8.23;5.93;;;;;;;;;;5002194;28;20225;-89
2021/06/11 01:38:23;;;;;;;10.80;5.43;;;;;;;;;;5011617;28;20187;-89
2021/06/11 01:40:50;;;;;;;6.30;5.37;;;;;;;;;;4987302;28;20269;-90
2021/06/11 01:43:18;;;;;;;8.07;6.20;;;;;;;;;;5004391;28;20261;-94
2021/06/11 01:45:44;;;;;;;7.13;6.07;;;;;;;;;;4990777;28;20551;-89
2021/06/11 01:48:10;;;;;;;7.00;5.73;;;;;;;;;;5005423;28;20184;-91
2021/06/11 01:50:36;;;;;;;7.70;6.10;;;;;;;;;;5000554;28;20183;-90
2021/06/11 01:53:04;;;;;;;6.67;5.97;;;;;;;;;;5005783;28;20203;-90
2021/06/11 01:55:30;;;;;;;8.50;6.57;;;;;;;;;;5002440;28;20246;-91
2021/06/11 01:57:57;;;;;;;9.10;6.27;;;;;;;;;;5008106;28;20191;-91
2021/06/11 02:00:23;;;;;;;9.07;7.10;;;;;;;;;;4991861;28;20256;-90
2021/06/11 02:02:50;;;;;;;10.10;7.17;;;;;;;;;;5005793;28;20244;-92
2021/06/11 02:05:16;;;;;;;9.37;6.60;;;;;;;;;;5011976;28;20195;-91
2021/06/11 02:07:45;;;;;;;8.07;6.20;;;;;;;;;;4995159;28;20202;-93
2021/06/11 02:10:13;;;;;;;8.43;6.77;;;;;;;;;;5001662;28;20206;-91
2021/06/11 02:12:39;;;;;;;7.27;6.50;;;;;;;;;;4988999;28;20302;-93
2021/06/11 02:15:07;;;;;;;8.33;6.10;;;;;;;;;;4997537;28;20207;-94
2021/06/11 02:17:37;;;;;;;9.83;6.70;;;;;;;;;;4991725;28;20655;-91
2021/06/11 02:20:08;;;;;;;9.23;6.47;;;;;;;;;;4993469;28;20218;-94
2021/06/11 02:22:36;;;;;;;13.13;6.53;;;;;;;;;;4982416;28;20238;-92
2021/06/11 02:25:02;;;;;;;11.20;7.30;;;;;;;;;;4990271;28;20282;-91
2021/06/11 02:27:28;;;;;;;10.20;7.07;;;;;;;;;;5012247;28;20277;-88
2021/06/11 02:29:53;;;;;;;7.37;6.57;;;;;;;;;;5007574;28;20183;-89
2021/06/11 02:32:20;;;;;;;8.77;5.77;;;;;;;;;;5006328;28;20238;-88
2021/06/11 02:34:46;;;;;;;7.53;6.67;;;;;;;;;;5016971;28;20171;-89
2021/06/11 02:37:11;;;;;;;10.83;7.93;;;;;;;;;;5013983;28;20184;-89
2021/06/11 02:39:36;;;;;;;10.47;8.27;;;;;;;;;;5013457;28;20206;-87
2021/06/11 02:42:05;;;;;;;9.60;7.50;;;;;;;;;;5011095;28;20761;-88
2021/06/11 02:44:35;;;;;;;9.73;7.30;;;;;;;;;;4997331;28;20598;-88
2021/06/11 02:47:15;;;;;;;10.43;6.03;;;;;;;;;;5005279;28;20203;-88
2021/06/11 02:50:17;;;;;;;9.77;7.47;;;;;;;;;;5005347;28;20190;-88
2021/06/11 02:52:55;;;;;;;10.03;7.37;;;;;;;;;;4962124;28;20310;-90
2021/06/11 02:55:22;;;;;;;8.63;6.97;;;;;;;;;;5012055;28;20183;-87
2021/06/11 02:58:17;;;;;;;7.67;6.97;;;;;;;;;;5007090;28;20188;-89
2021/06/11 03:00:43;;;;;;;6.87;5.83;;;;;;;;;;5010498;28;20216;-90
2021/06/11 03:03:15;;;;;;;8.03;5.90;;;;;;;;;;5001921;28;20632;-91
2021/06/11 03:05:42;;;;;;;6.70;5.70;;;;;;;;;;5002655;28;20274;-86
2021/06/11 03:08:11;;;;;;;7.90;6.37;;;;;;;;;;5006474;28;20191;-88
2021/06/11 03:10:40;;;;;;;7.73;6.03;;;;;;;;;;5007646;28;20203;-87
2021/06/11 03:13:08;;;;;;;7.80;5.97;;;;;;;;;;5009611;28;20687;-88
2021/06/11 03:15:35;;;;;;;8.30;6.47;;;;;;;;;;5000999;28;20202;-91
2021/06/11 03:18:13;;;;;;;9.17;6.23;;;;;;;;;;5009833;28;20581;-88
2021/06/11 03:20:41;;;;;;;10.17;7.23;;;;;;;;;;5002938;28;20274;-88
2021/06/11 03:23:15;;;;;;;8.83;7.63;;;;;;;;;;5006985;28;20219;-88
2021/06/11 03:25:51;;;;;;;8.03;5.77;;;;;;;;;;5005706;28;20215;-88
2021/06/11 03:28:41;;;;;;;7.30;6.57;;;;;;;;;;5002827;28;20313;-88
2021/06/11 03:31:12;;;;;;;9.37;5.80;;;;;;;;;;4999257;28;20183;-89
2021/06/11 03:33:40;;;;;;;7.03;5.80;;;;;;;;;;4982026;28;20787;-88
2021/06/11 03:36:27;;;;;;;9.23;7.27;;;;;;;;;;4993078;28;20202;-88
2021/06/11 03:38:56;;;;;;;10.73;8.03;;;;;;;;;;5006723;28;20274;-87
2021/06/11 03:41:23;;;;;;;11.30;8.43;;;;;;;;;;5007683;28;20210;-88
2021/06/11 03:43:50;;;;;;;9.57;8.57;;;;;;;;;;5004116;28;20198;-88
2021/06/11 03:46:19;;;;;;;9.70;8.20;;;;;;;;;;5011284;28;20219;-90
2021/06/11 03:48:47;;;;;;;10.80;7.93;;;;;;;;;;4986895;28;20202;-90
2021/06/11 03:51:13;;;;;;;7.17;6.47;;;;;;;;;;4991210;28;20194;-93
2021/06/11 03:53:43;;;;;;;9.10;7.43;;;;;;;;;;4991537;28;20188;-88
2021/06/11 03:56:11;;;;;;;8.53;7.37;;;;;;;;;;4998293;28;20533;-92
2021/06/11 03:58:40;;;;;;;8.97;7.73;;;;;;;;;;4997001;28;20185;-87
2021/06/11 04:01:12;;;;;;;11.87;7.57;;;;;;;;;;4982113;28;20195;-90
2021/06/11 04:03:41;;;;;;;11.83;8.43;;;;;;;;;;5007740;28;20195;-89
2021/06/11 04:06:11;;;;;;;7.67;6.53;;;;;;;;;;5005461;28;20188;-87
2021/06/11 04:08:37;;;;;;;8.93;7.47;;;;;;;;;;4998368;28;20695;-87
2021/06/11 04:11:06;;;;;;;10.27;6.37;;;;;;;;;;5005138;28;20267;-89
2021/06/11 04:13:40;;;;;;;17.23;6.43;;;;;;;;;;5015188;28;20218;-86
2021/06/11 04:16:18;;;;;;;12.67;6.00;;;;;;;;;;4998045;28;20196;-90
2021/06/11 04:18:45;;;;;;;10.93;6.23;;;;;;;;;;5005740;28;20195;-88
2021/06/11 04:21:20;;;;;;;6.33;5.40;;;;;;;;;;5001396;28;20483;-90
2021/06/11 04:23:46;;;;;;;9.90;6.10;;;;;;;;;;5005324;28;20880;-90
2021/06/11 04:26:13;;;;;;;8.63;6.37;;;;;;;;;;5008773;28;20214;-89
2021/06/11 04:28:39;;;;;;;9.50;6.03;;;;;;;;;;5004123;28;20298;-90
2021/06/11 04:31:05;;;;;;;8.43;5.93;;;;;;;;;;5003476;28;20210;-87
2021/06/11 04:33:31;;;;;;;7.60;6.00;;;;;;;;;;4990892;28;20722;-87
2021/06/11 04:35:57;;;;;;;7.40;6.07;;;;;;;;;;5034907;28;20169;-88
2021/06/11 04:38:23;;;;;;;6.93;5.70;;;;;;;;;;5031454;28;20227;-89
2021/06/11 04:40:50;;;;;;;6.93;6.00;;;;;;;;;;5036926;28;20222;-88
2021/06/11 04:43:16;;;;;;;9.87;6.80;;;;;;;;;;5011359;28;20211;-87
2021/06/11 04:45:42;;;;;;;9.57;6.40;;;;;;;;;;5008668;28;20636;-88
2021/06/11 04:48:07;;;;;;;9.80;7.60;;;;;;;;;;5014760;28;20245;-84
2021/06/11 04:50:33;;;;;;;9.20;6.97;;;;;;;;;;5005278;28;20191;-91
2021/06/11 04:52:59;;;;;;;8.30;7.50;;;;;;;;;;4990223;28;20222;-88
2021/06/11 04:55:24;;;;;;;11.37;8.37;;;;;;;;;;4998775;28;20699;-85
2021/06/11 04:57:51;;;;;;;9.07;8.00;;;;;;;;;;5009814;28;20193;-86
2021/06/11 05:00:17;;;;;;;10.97;8.43;;;;;;;;;;4993649;28;20203;-92
2021/06/11 05:02:42;;;;;;;8.97;6.93;;;;;;;;;;4991933;28;20217;-90
2021/06/11 05:05:08;;;;;;;8.43;7.50;;;;;;;;;;5008396;28;20289;-88
2021/06/11 05:07:37;;;;;;;10.00;7.57;;;;;;;;;;5009316;28;20270;-94
2021/06/11 05:10:05;;;;;;;9.90;8.07;;;;;;;;;;5009981;28;20191;-84
2021/06/11 05:12:30;;;;;;;9.43;7.17;;;;;;;;;;5018541;28;20299;-87
2021/06/11 05:14:55;;;;;;;8.30;7.50;;;;;;;;;;4996269;28;20267;-89
2021/06/11 05:17:20;;;;;;;9.40;7.83;;;;;;;;;;5004122;28;20257;-88
2021/06/11 05:19:46;;;;;;;9.57;7.30;;;;;;;;;;5008914;28;20294;-90
2021/06/11 05:22:11;;;;;;;8.83;7.30;;;;;;;;;;4995354;28;20213;-89
2021/06/11 05:24:37;;;;;;;7.77;6.90;;;;;;;;;;4999218;28;20199;-88
2021/06/11 05:27:02;;;;;;;7.90;7.10;;;;;;;;;;5004869;28;20758;-89
2021/06/11 05:29:30;;;;;;;7.23;6.47;;;;;;;;;;5012570;28;20190;-89
2021/06/11 05:31:55;;;;;;;8.17;6.90;;;;;;;;;;5007274;28;20206;-89
2021/06/11 05:34:20;;;;;;;6.33;5.73;;;;;;;;;;5006767;28;20180;-87
2021/06/11 05:36:48;;;;;;;7.37;6.57;;;;;;;;;;5004479;28;20203;-88
2021/06/11 05:39:15;;;;;;;7.43;6.67;;;;;;;;;;5005250;28;20221;-87
2021/06/11 05:41:40;;;;;;;7.17;6.47;;;;;;;;;;4987442;28;20241;-89
2021/06/11 05:44:06;;;;;;;7.37;6.67;;;;;;;;;;5018309;28;20205;-87
2021/06/11 05:46:33;;;;;;;7.07;5.80;;;;;;;;;;5001004;28;20195;-88
2021/06/11 05:48:58;;;;;;;7.13;6.23;;;;;;;;;;5008716;28;20198;-86
2021/06/11 05:51:23;;;;;;;7.20;6.50;;;;;;;;;;5005370;28;20223;-87
2021/06/11 05:53:49;;;;;;;7.27;6.30;;;;;;;;;;5010414;28;20192;-87
2021/06/11 05:56:14;;;;;;;7.17;5.90;;;;;;;;;;5009868;28;20210;-84
2021/06/11 05:58:39;;;;;;;8.27;6.70;;;;;;;;;;4993121;28;20188;-86
2021/06/11 06:01:06;;;;;;;7.37;6.47;;;;;;;;;;4989110;28;20236;-87
2021/06/11 06:03:32;;;;;;;10.80;6.43;;;;;;;;;;5016040;28;20237;-86
2021/06/11 06:05:57;;;;;;;9.33;6.40;;;;;;;;;;5006841;28;20183;-89
2021/06/11 06:08:22;;;;;;;8.00;6.50;;;;;;;;;;5003022;28;21794;-87
2021/06/11 06:10:50;;;;;;;7.07;6.38;;;;;;;;;;5004226;28;20188;-86
2021/06/11 06:13:15;;;;;;;8.27;6.55;;;;;;;;;;4987808;28;20586;-86
2021/06/11 06:15:41;;;;;;;8.48;5.85;;;;;;;;;;5010908;28;20188;-86
2021/06/11 06:18:07;;;;;;;8.93;6.30;;;;;;;;;;5008559;28;20195;-87
2021/06/11 06:20:33;;;;;;;8.82;6.15;;;;;;;;;;5004536;28;20220;-86
2021/06/11 06:22:58;;;;;;;8.02;6.30;;;;;;;;;;5008651;28;20213;-86
2021/06/11 06:25:23;;;;;;;7.70;6.15;;;;;;;;;;5002007;28;20210;-86
2021/06/11 06:27:49;;;;;;;7.05;6.45;;;;;;;;;;5009661;28;20180;-89
2021/06/11 06:30:18;;;;;;;7.13;6.05;;;;;;;;;;4985671;28;20208;-87
2021/06/11 06:32:43;;;;;;;9.25;6.30;;;;;;;;;;4983352;28;20227;-88
2021/06/11 06:35:11;;;;;;;6.55;5.95;;;;;;;;;;5009841;28;20188;-85
2021/06/11 06:37:37;;;;;;;9.13;5.65;;;;;;;;;;5005566;28;20223;-82
2021/06/11 06:40:03;;;;;;;6.90;6.20;;;;;;;;;;4993288;28;20258;-81
2021/06/11 06:42:31;;;;;;;5.93;5.25;;;;;;;;;;5001630;28;20224;-84
2021/06/11 06:44:56;;;;;;;6.75;5.80;;;;;;;;;;5004310;28;20270;-88
2021/06/11 06:47:22;;;;;;;7.80;6.03;;;;;;;;;;5003922;28;20283;-87
2021/06/11 06:49:47;;;;;;;7.47;6.05;;;;;;;;;;5011325;28;20231;-87
2021/06/11 06:52:14;;;;;;;5.95;5.35;;;;;;;;;;4994216;28;20210;-84
2021/06/11 06:54:43;;;;;;;6.45;5.80;;;;;;;;;;5006743;28;20242;-83
2021/06/11 06:57:09;;;;;;;6.45;5.82;;;;;;;;;;4996225;28;20179;-87
2021/06/11 06:59:34;;;;;;;7.47;5.85;;;;;;;;;;5010701;28;20257;-83
2021/06/11 07:02:00;;;;;;;7.82;5.32;;;;;;;;;;5006714;28;20614;-82
2021/06/11 07:04:27;;;;;;;6.55;5.70;;;;;;;;;;5006553;28;20206;-81
2021/06/11 07:06:52;;;;;;;7.85;5.25;;;;;;;;;;5007823;28;20191;-82
2021/06/11 07:09:20;;;;;;;5.38;4.25;;;;;;;;;;4998213;28;20566;-84
2021/06/11 07:11:49;;;;;;;8.65;4.72;;;;;;;;;;4981351;28;20211;-80
2021/06/11 07:14:15;;;;;;;5.78;5.28;;;;;;;;;;5005803;28;20183;-83
2021/06/11 07:16:41;;;;;;;5.35;4.85;;;;;;;;;;5004925;28;20266;-82
2021/06/11 07:19:09;;;;;;;5.53;4.32;;;;;;;;;;4983064;28;20314;-82
2021/06/11 07:21:35;;;;;;;5.10;4.20;;;;;;;;;;5001037;28;20218;-83
2021/06/11 07:24:00;;;;;;;5.60;4.07;;;;;;;;;;5001049;28;20289;-83
2021/06/11 07:26:26;;;;;;;5.55;4.30;;;;;;;;;;5008632;28;20335;-82
2021/06/11 07:28:51;;;;;;;6.88;4.05;;;;;;;;;;4993783;28;20242;-83
2021/06/11 07:31:16;;;;;;;5.68;4.53;;;;;;;;;;5000616;28;20652;-88
2021/06/11 07:33:42;;;;;;;5.63;4.68;;;;;;;;;;4997855;28;20226;-85
2021/06/11 07:36:07;;;;;;;5.20;4.70;;;;;;;;;;5008156;28;20287;-83
2021/06/11 07:38:33;;;;;;;5.85;4.53;;;;;;;;;;4998700;28;20179;-86
2021/06/11 07:40:58;;;;;;;5.85;4.95;;;;;;;;;;4986234;28;20218;-81
2021/06/11 07:43:24;;;;;;;8.18;4.97;;;;;;;;;;4991073;28;20215;-85
2021/06/11 07:45:50;;;;;;;5.50;4.88;;;;;;;;;;4993578;28;20689;-86
2021/06/11 07:48:16;;;;;;;6.47;5.97;;;;;;;;;;5001952;28;20236;-87
2021/06/11 07:50:45;;;;;;;7.13;6.45;;;;;;;;;;5000362;28;20179;-86
2021/06/11 07:53:12;;;;;;;7.22;6.55;;;;;;;;;;5001051;28;20229;-90
2021/06/11 07:55:39;;;;;;;7.70;7.10;;;;;;;;;;4981809;28;20227;-90
2021/06/11 07:58:04;;;;;;;7.20;6.60;;;;;;;;;;4996339;28;20195;-84
2021/06/11 08:00:29;;;;;;;7.75;7.03;;;;;;;;;;4995021;28;20219;-93
2021/06/11 08:03:00;;;;;;;9.00;6.78;;;;;;;;;;5005387;28;20678;-84
2021/06/11 08:05:27;;;;;;;6.95;6.45;;;;;;;;;;4987892;28;20217;-91
2021/06/11 08:07:53;;;;;;;8.43;7.72;;;;;;;;;;5001047;28;20659;-85
2021/06/11 08:10:19;;;;;;;8.25;7.60;;;;;;;;;;5003483;28;20187;-90
2021/06/11 08:12:45;;;;;;;7.80;7.20;;;;;;;;;;5002221;28;20313;-90
2021/06/11 08:15:11;;;;;;;8.68;7.47;;;;;;;;;;4990499;28;20273;-89
2021/06/11 08:17:36;;;;;;;7.53;6.93;;;;;;;;;;5001996;28;20191;-90
2021/06/11 08:20:03;;;;;;;7.72;7.03;;;;;;;;;;4998917;28;20210;-90
2021/06/11 08:22:28;;;;;;;8.20;7.50;;;;;;;;;;5006429;28;20207;-91
2021/06/11 08:24:56;;;;;;;7.57;7.07;;;;;;;;;;4988705;28;20574;-90
2021/06/11 08:27:21;;;;;;;8.40;7.50;;;;;;;;;;5002992;28;20456;-90
2021/06/11 08:29:46;;;;;;;8.13;7.43;;;;;;;;;;5004761;28;20198;-90
2021/06/11 08:32:12;;;;;;;7.15;6.65;;;;;;;;;;5002209;28;21005;-91
2021/06/11 08:34:39;;;;;;;7.57;6.88;;;;;;;;;;4986430;28;20190;-90
2021/06/11 08:37:06;;;;;;;6.50;6.00;;;;;;;;;;5006626;28;20321;-91
2021/06/11 08:39:33;;;;;;;7.00;6.43;;;;;;;;;;5003258;28;20186;-92
2021/06/11 08:41:59;;;;;;;6.43;5.82;;;;;;;;;;5001298;28;20198;-91
2021/06/11 08:44:26;;;;;;;6.35;5.75;;;;;;;;;;5013977;28;20197;-91
2021/06/11 08:46:53;;;;;;;6.47;5.97;;;;;;;;;;5007891;28;20195;-90
2021/06/11 08:49:19;;;;;;;5.75;5.20;;;;;;;;;;5000278;28;20198;-92
2021/06/11 08:51:47;;;;;;;5.80;5.40;;;;;;;;;;5001707;28;20674;-90
2021/06/11 08:54:13;;;;;;;6.88;6.30;;;;;;;;;;4997129;28;20202;-92
2021/06/11 08:56:38;;;;;;;7.13;6.63;;;;;;;;;;5004166;28;20559;-92
2021/06/11 08:59:06;;;;;;;8.07;5.35;;;;;;;;;;5004067;28;20194;-90
2021/06/11 09:01:32;;;;;;;5.97;5.57;;;;;;;;;;4997167;28;20250;-91
2021/06/11 09:04:00;;;;;;;4.97;4.45;;;;;;;;;;4986326;28;20190;-89
2021/06/11 09:06:27;;;;;;;4.65;4.22;;;;;;;;;;4978889;28;20198;-89
2021/06/11 09:08:56;;;;;;;4.53;4.15;;;;;;;;;;5005794;28;20187;-89
2021/06/11 09:11:40;;;;;;;4.05;3.75;;;;;;;;;;5005790;28;20678;-89
2021/06/11 09:14:12;;;;;;;4.40;4.10;;;;;;;;;;5010172;28;20198;-88
2021/06/11 09:16:58;;;;;;;4.20;3.75;;;;;;;;;;5009554;28;20191;-89
2021/06/11 09:19:27;;;;;;;4.97;4.10;;;;;;;;;;5008687;28;20189;-89
2021/06/11 09:22:01;;;;;;;5.28;3.97;;;;;;;;;;4992725;28;20249;-89
2021/06/11 09:24:27;;;;;;;5.00;3.63;;;;;;;;;;5006449;28;20189;-89
2021/06/11 09:27:06;;;;;;;4.05;3.72;;;;;;;;;;5018003;28;20312;-88
2021/06/11 09:29:46;;;;;;;4.57;4.10;;;;;;;;;;5007638;28;20214;-89
2021/06/11 09:32:26;;;;;;;4.40;4.00;;;;;;;;;;5011106;28;20221;-88
2021/06/11 09:35:18;;;;;;;4.47;4.13;;;;;;;;;;5001901;28;20605;-87
2021/06/11 09:37:43;;;;;;;5.75;4.50;;;;;;;;;;5003148;28;20222;-89
2021/06/11 09:40:11;;;;;;;5.80;4.53;;;;;;;;;;5016330;28;20580;-90
2021/06/11 09:42:48;;;;;;;4.30;4.00;;;;;;;;;;5007420;28;20237;-88
2021/06/11 09:45:18;;;;;;;4.75;4.45;;;;;;;;;;5010509;28;20659;-89
2021/06/11 09:47:46;;;;;;;5.13;4.57;;;;;;;;;;5008534;28;20237;-89
2021/06/11 09:50:20;;;;;;;5.72;5.13;;;;;;;;;;5010512;28;20222;-89
2021/06/11 09:52:58;;;;;;;5.35;4.95;;;;;;;;;;5014560;28;20210;-87
2021/06/11 09:55:45;;;;;;;5.80;5.03;;;;;;;;;;5008785;28;20191;-86
2021/06/11 09:58:11;;;;;;;5.65;4.70;;;;;;;;;;5010767;28;20202;-88
2021/06/11 10:00:42;;;;;;;5.65;5.20;;;;;;;;;;5009578;28;20615;-87
2021/06/11 10:03:13;;;;;;;6.35;4.63;;;;;;;;;;5004641;28;20703;-87
2021/06/11 10:05:40;;;;;;;5.57;5.05;;;;;;;;;;5005719;28;20654;-86
2021/06/11 10:08:07;;;;;;;11.68;5.07;;;;;;;;;;5007855;28;20270;-87
2021/06/11 10:10:32;;;;;;;5.65;5.15;;;;;;;;;;4993367;28;20742;-86
2021/06/11 10:13:00;;;;;;;5.97;5.45;;;;;;;;;;5012548;28;20239;-87
2021/06/11 10:15:25;;;;;;;5.20;4.80;;;;;;;;;;5012618;28;20271;-86
2021/06/11 10:17:53;;;;;;;7.82;5.00;;;;;;;;;;5010987;28;20187;-87
2021/06/11 10:20:18;;;;;;;5.70;5.20;;;;;;;;;;4996084;28;20649;-86
2021/06/11 10:22:44;;;;;;;4.95;4.55;;;;;;;;;;5002503;28;20273;-88
2021/06/11 10:25:12;;;;;;;7.03;5.47;;;;;;;;;;5003669;28;20191;-87
2021/06/11 10:27:43;;;;;;;5.97;5.38;;;;;;;;;;5007910;28;20187;-87
2021/06/11 10:30:10;;;;;;;5.47;5.00;;;;;;;;;;5003724;28;20238;-87
2021/06/11 10:32:39;;;;;;;5.65;5.15;;;;;;;;;;4981304;28;20234;-88
2021/06/11 10:35:05;;;;;;;5.97;5.40;;;;;;;;;;5003601;28;20192;-86
2021/06/11 10:37:34;;;;;;;6.80;4.78;;;;;;;;;;5001543;28;20191;-86
2021/06/11 10:40:14;;;;;;;5.40;4.90;;;;;;;;;;5008808;28;20184;-88
2021/06/11 10:42:39;;;;;;;5.35;4.85;;;;;;;;;;5010464;28;20218;-87
2021/06/11 10:45:05;;;;;;;5.25;4.78;;;;;;;;;;4998753;28;20180;-89
2021/06/11 10:47:33;;;;;;;5.20;4.80;;;;;;;;;;4998490;28;20694;-88
2021/06/11 10:50:01;;;;;;;5.47;4.97;;;;;;;;;;4979591;28;20212;-84
2021/06/11 10:52:38;;;;;;;5.53;5.03;;;;;;;;;;4991717;28;20764;-84
2021/06/11 10:55:15;;;;;;;5.63;5.13;;;;;;;;;;5004941;28;20226;-85
2021/06/11 10:58:05;;;;;;;7.07;4.88;;;;;;;;;;5007762;28;20188;-86
2021/06/11 11:00:34;;;;;;;5.57;5.07;;;;;;;;;;5013389;28;20179;-87
2021/06/11 11:03:02;;;;;;;6.50;5.50;;;;;;;;;;5009193;28;20716;-87
2021/06/11 11:05:35;;;;;;;6.50;5.88;;;;;;;;;;5006814;28;20261;-86
2021/06/11 11:08:05;;;;;;;6.95;6.35;;;;;;;;;;5008934;28;20194;-88
2021/06/11 11:10:39;;;;;;;6.75;6.10;;;;;;;;;;5005060;28;20613;-86
2021/06/11 11:13:08;;;;;;;7.25;5.25;;;;;;;;;;5007213;28;20571;-85
2021/06/11 11:15:38;;;;;;;6.60;5.93;;;;;;;;;;5016201;28;20348;-85
2021/06/11 11:18:09;;;;;;;9.55;5.28;;;;;;;;;;5002289;28;20350;-85
2021/06/11 11:20:37;;;;;;;6.05;5.03;;;;;;;;;;5005321;28;20217;-85
2021/06/11 11:23:35;;;;;;;6.10;5.55;;;;;;;;;;5008935;28;20215;-86
2021/06/11 11:26:00;;;;;;;6.38;5.88;;;;;;;;;;4965615;28;20200;-85
2021/06/11 11:28:26;;;;;;;6.85;5.78;;;;;;;;;;5001814;28;20306;-88
2021/06/11 11:30:51;;;;;;;13.25;9.18;;;;;;;;;;5004657;28;20277;-88
2021/06/11 11:33:16;;;;;;;7.05;6.40;;;;;;;;;;4998269;28;20242;-86
2021/06/11 11:35:46;;;;;;;6.45;5.85;;;;;;;;;;5001754;28;20191;-88
2021/06/11 11:38:12;;;;;;;11.05;5.88;;;;;;;;;;5002237;28;20264;-87
2021/06/11 11:40:41;;;;;;;7.47;5.90;;;;;;;;;;5009996;28;20237;-88
2021/06/11 11:43:09;;;;;;;6.50;5.90;;;;;;;;;;5029386;23;20313;-86
2021/06/11 11:45:37;;;;;;;6.15;5.30;;;;;;;;;;5022023;28;20198;-88
2021/06/11 11:48:06;;;;;;;6.43;4.93;;;;;;;;;;5020047;28;20217;-87
2021/06/11 11:50:34;;;;;;;7.60;5.32;;;;;;;;;;5026067;28;20220;-85
2021/06/11 11:53:00;;;;;;;7.55;4.88;;;;;;;;;;5012545;28;20210;-85
2021/06/11 11:55:26;;;;;;;6.45;5.85;;;;;;;;;;5018516;28;20666;-87
2021/06/11 11:57:51;;;;;;;8.60;5.90;;;;;;;;;;5013615;28;20263;-87
2021/06/11 12:00:19;;;;;;;5.90;5.40;;;;;;;;;;5017374;28;20186;-86
2021/06/11 12:02:45;;;;;;;7.03;5.65;;;;;;;;;;5015628;28;20234;-87
2021/06/11 12:05:15;;;;;;;8.63;5.18;;;;;;;;;;5012277;28;20217;-87
2021/06/11 12:07:41;;;;;;;10.55;6.40;;;;;;;;;;5004227;28;20254;-88
2021/06/11 12:10:07;;;;;;;6.95;6.22;;;;;;;;;;5014976;28;20285;-88
2021/06/11 12:12:32;;;;;;;8.15;5.50;;;;;;;;;;5017182;28;20297;-88
2021/06/11 12:14:58;;;;;;;7.22;5.10;;;;;;;;;;5020861;28;20259;-88
2021/06/11 12:17:23;;;;;;;5.28;4.78;;;;;;;;;;5010655;28;20233;-85
2021/06/11 12:19:49;;;;;;;5.82;5.03;;;;;;;;;;5017720;28;20191;-89
2021/06/11 12:22:14;;;;;;;6.82;5.28;;;;;;;;;;5019544;28;20230;-88
2021/06/11 12:24:41;;;;;;;6.10;4.57;;;;;;;;;;5021104;28;20558;-88
2021/06/11 12:27:07;;;;;;;7.80;5.10;;;;;;;;;;5005227;28;20230;-85
2021/06/11 12:29:32;;;;;;;8.02;5.63;;;;;;;;;;5021472;28;20205;-84
2021/06/11 12:31:57;;;;;;;6.00;5.30;;;;;;;;;;4999403;28;20618;-85
2021/06/11 12:34:23;;;;;;;6.07;5.43;;;;;;;;;;5024502;28;20187;-85
2021/06/11 12:36:49;;;;;;;10.55;5.72;;;;;;;;;;5021336;28;20213;-84
2021/06/11 12:39:17;;;;;;;7.28;5.65;;;;;;;;;;5023018;28;20179;-85
2021/06/11 12:41:43;;;;;;;6.47;5.22;;;;;;;;;;5019559;28;20595;-84
2021/06/11 12:44:19;;;;;;;6.63;5.32;;;;;;;;;;5021638;28;20195;-86
2021/06/11 12:46:45;;;;;;;6.18;5.57;;;;;;;;;;5024696;28;20457;-88
2021/06/11 12:49:11;;;;;;;5.70;5.20;;;;;;;;;;5011476;28;20202;-86
2021/06/11 12:51:37;;;;;;;5.80;5.03;;;;;;;;;;5013014;28;20206;-87
2021/06/11 12:54:03;;;;;;;7.55;5.63;;;;;;;;;;4996084;28;20222;-88
2021/06/11 12:56:29;;;;;;;7.60;5.13;;;;;;;;;;5004614;28;20195;-88
2021/06/11 12:58:58;;;;;;;7.85;5.13;;;;;;;;;;5019256;28;20238;-87
2021/06/11 13:01:23;;;;;;;12.23;7.13;;;;;;;;;;5009449;28;20225;-88
2021/06/11 13:03:51;;;;;;;8.10;5.85;;;;;;;;;;5015886;28;20710;-87
2021/06/11 13:06:16;;;;;;;7.45;5.70;;;;;;;;;;4998959;28;20606;-87
2021/06/11 13:08:44;;;;;;;6.07;5.43;;;;;;;;;;5016131;28;20278;-88
2021/06/11 13:11:10;;;;;;;6.53;5.93;;;;;;;;;;5019537;28;20214;-87
2021/06/11 13:13:35;;;;;;;6.88;6.28;;;;;;;;;;5017629;28;20456;-87
2021/06/11 13:16:00;;;;;;;11.82;6.35;;;;;;;;;;4997903;28;20225;-88
2021/06/11 13:18:25;;;;;;;7.35;5.63;;;;;;;;;;5003223;28;20182;-88
2021/06/11 13:20:51;;;;;;;7.43;5.47;;;;;;;;;;5015585;28;20422;-89
2021/06/11 13:23:16;;;;;;;5.68;5.13;;;;;;;;;;5007026;28;20227;-88
2021/06/11 13:25:42;;;;;;;6.50;5.93;;;;;;;;;;5013887;28;20186;-88
2021/06/11 13:28:07;;;;;;;6.20;5.63;;;;;;;;;;5004637;28;20650;-88
2021/06/11 13:30:32;;;;;;;5.82;5.25;;;;;;;;;;5020109;28;20199;-87
2021/06/11 13:32:58;;;;;;;11.70;5.10;;;;;;;;;;5001595;28;20222;-88
2021/06/11 13:35:27;;;;;;;5.05;4.63;;;;;;;;;;5015601;28;20182;-87
2021/06/11 13:37:52;;;;;;;5.55;4.85;;;;;;;;;;5013028;28;20677;-88
2021/06/11 13:40:18;;;;;;;9.18;4.75;;;;;;;;;;5010388;28;20188;-88
2021/06/11 13:42:44;;;;;;;5.05;4.55;;;;;;;;;;5013349;28;20701;-87
2021/06/11 13:45:13;;;;;;;4.93;4.43;;;;;;;;;;5025498;28;20191;-88
2021/06/11 13:47:44;;;;;;;4.82;4.32;;;;;;;;;;5022698;28;20198;-88
2021/06/11 13:50:11;;;;;;;4.47;4.10;;;;;;;;;;5014040;28;20884;-88
2021/06/11 13:52:40;;;;;;;7.20;4.40;;;;;;;;;;4996554;28;20246;-88
2021/06/11 13:55:07;;;;;;;9.38;5.25;;;;;;;;;;5016252;28;20568;-89
2021/06/11 13:57:32;;;;;;;6.45;4.38;;;;;;;;;;5000992;28;20187;-88
2021/06/11 13:59:58;;;;;;;5.30;4.85;;;;;;;;;;5023144;28;20181;-88
2021/06/11 14:02:26;;;;;;;4.78;4.30;;;;;;;;;;5000010;28;20213;-88
2021/06/11 14:04:51;;;;;;;5.57;4.45;;;;;;;;;;5018032;28;20194;-89
2021/06/11 14:07:17;;;;;;;4.85;4.40;;;;;;;;;;5019957;28;20183;-88
2021/06/11 14:09:42;;;;;;;4.80;4.32;;;;;;;;;;5007464;28;20572;-88
2021/06/11 14:12:07;;;;;;;4.43;4.03;;;;;;;;;;5008002;28;20306;-88
2021/06/11 14:14:35;;;;;;;5.82;4.30;;;;;;;;;;5027238;28;20637;-88
2021/06/11 14:17:00;;;;;;;4.43;4.13;;;;;;;;;;5027697;28;20187;-88
2021/06/11 14:19:26;;;;;;;4.80;4.25;;;;;;;;;;5016443;28;20190;-88
2021/06/11 14:21:51;;;;;;;4.93;4.20;;;;;;;;;;5031107;22;20658;-88
2021/06/11 14:24:19;;;;;;;8.57;4.38;;;;;;;;;;5030198;28;20203;-88
2021/06/11 14:26:46;;;;;;;4.57;3.65;;;;;;;;;;5029899;28;20189;-88
2021/06/11 14:29:14;;;;;;;5.53;4.22;;;;;;;;;;5030181;28;20194;-88
2021/06/11 14:31:41;;;;;;;5.03;3.80;;;;;;;;;;5010999;28;20222;-88
2021/06/11 14:34:07;;;;;;;5.05;3.55;;;;;;;;;;5013875;28;20375;-88
2021/06/11 14:36:32;;;;;;;4.20;3.80;;;;;;;;;;5005709;28;20272;-86
2021/06/11 14:38:59;;;;;;;11.05;3.90;;;;;;;;;;5003253;28;20201;-87
2021/06/11 14:41:27;;;;;;;4.53;3.90;;;;;;;;;;5009073;28;20218;-78
2021/06/11 14:43:52;;;;;;;4.47;4.07;;;;;;;;;;5009700;28;20574;-82
2021/06/11 14:46:17;;;;;;;3.80;3.42;;;;;;;;;;5005195;28;20275;-85